createdAt,value
2022-09-25T00:01:58.434Z,2.60
2022-09-25T00:04:26.704Z,3.17
2022-09-25T00:06:56.664Z,2.78
2022-09-25T00:09:24.860Z,3.40
2022-09-25T00:11:53.339Z,3.03
2022-09-25T00:14:21.566Z,3.20
2022-09-25T00:16:49.774Z,3.00
2022-09-25T00:19:40.285Z,2.90
2022-09-25T00:22:08.466Z,2.83
2022-09-25T00:24:36.828Z,2.92
2022-09-25T00:27:06.179Z,2.92
2022-09-25T00:29:34.305Z,3.17
2022-09-25T00:32:02.673Z,3.08
2022-09-25T00:34:32.347Z,2.90
2022-09-25T00:37:00.548Z,3.08
2022-09-25T00:39:28.768Z,2.75
2022-09-25T00:41:57.104Z,3.20
2022-09-25T00:44:57.554Z,3.10
2022-09-25T00:47:42.884Z,3.30
2022-09-25T00:50:22.188Z,3.10
2022-09-25T00:52:53.138Z,3.17
2022-09-25T00:55:24.018Z,3.40
2022-09-25T00:57:55.194Z,3.78
2022-09-25T01:00:23.699Z,3.20
2022-09-25T01:02:54.351Z,2.88
2022-09-25T01:05:28.548Z,3.47
2022-09-25T01:07:59.028Z,3.42
2022-09-25T01:10:28.915Z,3.40
2022-09-25T01:12:59.186Z,3.42
2022-09-25T01:15:33.831Z,3.20
2022-09-25T01:18:12.132Z,2.97
2022-09-25T01:21:11.116Z,3.58
2022-09-25T01:24:17.737Z,3.20
2022-09-25T01:27:18.033Z,3.47
2022-09-25T01:29:52.509Z,3.35
2022-09-25T01:32:24.898Z,3.33
2022-09-25T01:35:01.657Z,3.20
2022-09-25T01:37:35.044Z,3.28
2022-09-25T01:40:11.874Z,3.22
2022-09-25T01:42:44.703Z,3.13
2022-09-25T01:45:21.144Z,3.80
2022-09-25T01:47:53.173Z,3.60
2022-09-25T01:50:27.954Z,3.50
2022-09-25T01:52:59.892Z,3.08
2022-09-25T01:55:32.197Z,3.40
2022-09-25T01:58:05.710Z,3.97
2022-09-25T02:00:38.255Z,3.60
2022-09-25T02:03:12.660Z,3.80
2022-09-25T02:05:46.206Z,3.53
2022-09-25T02:08:20.047Z,3.72
2022-09-25T02:10:51.531Z,3.17
2022-09-25T02:13:21.944Z,3.50
2022-09-25T02:15:54.262Z,3.80
2022-09-25T02:18:41.275Z,3.75
2022-09-25T02:21:18.548Z,3.50
2022-09-25T02:23:54.191Z,4.10
2022-09-25T02:26:28.103Z,3.35
2022-09-25T02:28:56.968Z,3.83
2022-09-25T02:31:31.202Z,3.55
2022-09-25T02:33:59.850Z,3.38
2022-09-25T02:36:28.216Z,3.50
2022-09-25T02:38:57.467Z,3.55
2022-09-25T02:41:37.892Z,3.50
2022-09-25T02:44:12.653Z,3.90
2022-09-25T02:46:51.446Z,3.80
2022-09-25T02:49:39.005Z,4.13
2022-09-25T02:52:13.309Z,4.10
2022-09-25T02:54:46.915Z,3.83
2022-09-25T02:57:23.718Z,4.07
2022-09-25T02:59:59.318Z,4.15
2022-09-25T03:02:30.346Z,3.67
2022-09-25T03:05:01.645Z,3.63
2022-09-25T03:07:50.276Z,4.70
2022-09-25T03:10:19.339Z,4.57
2022-09-25T03:12:49.456Z,4.00
2022-09-25T03:15:18.018Z,4.40
2022-09-25T03:17:54.272Z,3.83
2022-09-25T03:20:22.435Z,4.40
2022-09-25T03:22:50.768Z,4.50
2022-09-25T03:25:19.674Z,3.70
2022-09-25T03:27:48.701Z,4.30
2022-09-25T03:30:17.138Z,4.50
2022-09-25T03:32:46.339Z,4.55
2022-09-25T03:35:15.933Z,4.47
2022-09-25T03:37:44.215Z,4.35
2022-09-25T03:40:12.876Z,3.55
2022-09-25T03:42:41.078Z,4.05
2022-09-25T03:45:09.995Z,4.00
2022-09-25T03:47:38.522Z,4.07
2022-09-25T03:50:08.434Z,3.50
2022-09-25T03:52:38.459Z,4.20
2022-09-25T03:55:07.852Z,4.13
2022-09-25T03:57:36.070Z,3.72
2022-09-25T04:00:05.078Z,4.20
2022-09-25T04:02:33.467Z,4.35
2022-09-25T04:05:02.545Z,4.13
2022-09-25T04:07:30.981Z,4.03
2022-09-25T04:10:00.677Z,4.80
2022-09-25T04:12:28.987Z,4.80
2022-09-25T04:14:57.396Z,6.05
2022-09-25T04:17:26.105Z,9.07
2022-09-25T04:19:54.199Z,9.23
2022-09-25T04:22:22.560Z,8.80
2022-09-25T04:24:50.956Z,10.25
2022-09-25T04:27:22.562Z,9.75
2022-09-25T04:29:51.413Z,9.20
2022-09-25T04:32:33.479Z,8.23
2022-09-25T04:35:02.153Z,8.25
2022-09-25T04:37:30.355Z,8.48
2022-09-25T04:39:59.393Z,7.50
2022-09-25T04:42:29.436Z,7.53
2022-09-25T04:44:58.482Z,8.25
2022-09-25T04:47:30.283Z,8.10
2022-09-25T04:49:58.866Z,7.82
2022-09-25T04:52:28.466Z,7.95
2022-09-25T04:54:56.760Z,8.13
2022-09-25T04:57:53.581Z,7.50
2022-09-25T05:00:18.832Z,8.50
2022-09-25T05:02:47.185Z,8.40
2022-09-25T05:05:16.568Z,8.40
2022-09-25T05:07:54.693Z,8.20
2022-09-25T05:10:24.395Z,9.50
2022-09-25T05:12:56.946Z,10.82
2022-09-25T05:15:27.855Z,11.02
2022-09-25T05:18:06.276Z,11.32
2022-09-25T05:20:36.343Z,11.27
2022-09-25T05:23:04.582Z,10.00
2022-09-25T05:25:33.616Z,9.85
2022-09-25T05:28:03.119Z,10.27
2022-09-25T05:30:34.496Z,11.80
2022-09-25T05:33:02.958Z,11.60
2022-09-25T05:35:33.495Z,12.32
2022-09-25T05:38:02.416Z,11.50
2022-09-25T05:40:30.879Z,11.07
2022-09-25T05:42:59.812Z,11.82
2022-09-25T05:45:28.140Z,11.10
2022-09-25T05:48:04.664Z,10.50
2022-09-25T05:50:33.525Z,11.32
2022-09-25T05:53:03.003Z,13.20
2022-09-25T05:55:32.161Z,11.40
2022-09-25T05:58:04.098Z,10.88
2022-09-25T06:00:33.641Z,11.30
2022-09-25T06:03:03.393Z,11.95
2022-09-25T06:05:31.681Z,11.93
2022-09-25T06:07:59.939Z,10.55
2022-09-25T06:10:28.235Z,9.32
2022-09-25T06:12:59.888Z,9.27
2022-09-25T06:15:28.348Z,8.88
2022-09-25T06:17:57.091Z,9.23
2022-09-25T06:20:27.129Z,7.85
2022-09-25T06:22:55.772Z,7.20
2022-09-25T06:25:25.952Z,6.82
2022-09-25T06:27:59.583Z,6.28
2022-09-25T06:33:00.055Z,5.70
2022-09-25T06:35:31.734Z,5.55
2022-09-25T06:38:00.760Z,5.88
2022-09-25T06:40:31.424Z,6.13
2022-09-25T06:43:00.588Z,6.15
2022-09-25T06:45:30.420Z,6.38
2022-09-25T06:48:02.387Z,6.80
2022-09-25T06:50:39.238Z,6.40
2022-09-25T06:53:07.474Z,6.53
2022-09-25T06:55:36.269Z,6.95
2022-09-25T06:58:05.060Z,6.85
2022-09-25T07:00:33.878Z,6.68
2022-09-25T07:03:20.067Z,7.75
2022-09-25T07:05:49.851Z,7.25
2022-09-25T07:08:21.083Z,6.28
2022-09-25T07:10:50.621Z,6.30
2022-09-25T07:13:19.437Z,5.30
2022-09-25T07:15:53.269Z,5.20
2022-09-25T07:18:21.787Z,5.20
2022-09-25T07:20:52.285Z,4.75
2022-09-25T07:23:22.499Z,4.53
2022-09-25T07:25:51.124Z,4.65
2022-09-25T07:28:20.129Z,4.63
2022-09-25T07:30:50.418Z,4.45
2022-09-25T07:33:20.032Z,3.80
2022-09-25T07:35:48.219Z,4.05
2022-09-25T07:38:18.127Z,3.95
2022-09-25T07:40:46.460Z,4.40
2022-09-25T07:43:14.776Z,3.80
2022-09-25T07:45:53.771Z,4.22
2022-09-25T07:48:23.318Z,4.60
2022-09-25T07:50:51.699Z,3.97
2022-09-25T07:53:21.366Z,3.85
2022-09-25T07:55:49.695Z,3.75
2022-09-25T07:58:19.626Z,4.03
2022-09-25T08:00:47.884Z,3.90
2022-09-25T08:03:16.611Z,4.10
2022-09-25T08:05:44.846Z,3.75
2022-09-25T08:08:13.301Z,3.83
2022-09-25T08:10:42.946Z,3.95
2022-09-25T08:13:11.267Z,3.88
2022-09-25T08:15:39.642Z,3.70
2022-09-25T08:18:09.864Z,3.70
2022-09-25T08:20:40.366Z,3.97
2022-09-25T08:23:08.894Z,4.18
2022-09-25T08:25:37.097Z,4.68
2022-09-25T08:28:06.904Z,4.63
2022-09-25T08:30:35.261Z,4.78
2022-09-25T08:33:04.264Z,5.03
2022-09-25T08:35:32.732Z,4.53
2022-09-25T08:38:01.327Z,4.50
2022-09-25T08:40:33.582Z,4.43
2022-09-25T08:43:02.093Z,4.47
2022-09-25T08:45:55.997Z,5.07
2022-09-25T08:48:45.983Z,4.10
2022-09-25T08:51:16.792Z,4.30
2022-09-25T08:53:46.205Z,4.40
2022-09-25T08:56:18.166Z,4.32
2022-09-25T08:58:54.503Z,4.75
2022-09-25T09:01:28.053Z,4.20
2022-09-25T09:06:29.233Z,3.80
2022-09-25T09:09:08.045Z,3.70
2022-09-25T09:11:42.925Z,4.03
2022-09-25T09:16:49.855Z,3.42
2022-09-25T09:19:18.402Z,3.30
2022-09-25T09:21:52.835Z,4.72
2022-09-25T09:24:30.069Z,2.75
2022-09-25T09:27:15.882Z,2.40
2022-09-25T09:30:10.041Z,2.42
2022-09-25T09:35:31.253Z,2.10
2022-09-25T09:38:12.106Z,2.40
2022-09-25T09:41:08.266Z,2.30
2022-09-25T09:43:56.468Z,2.40
2022-09-25T09:46:34.106Z,3.20
2022-09-25T09:49:12.717Z,2.40
2022-09-25T09:51:46.089Z,2.50
2022-09-25T09:56:49.414Z,1.60
2022-09-25T09:59:20.940Z,1.50
2022-09-25T10:02:02.382Z,1.70
2022-09-25T10:04:37.941Z,1.60
2022-09-25T10:07:09.620Z,1.48
2022-09-25T10:09:38.667Z,1.67
2022-09-25T10:12:14.752Z,1.50
2022-09-25T10:14:48.299Z,1.20
2022-09-25T10:17:18.360Z,1.10
2022-09-25T10:19:54.316Z,1.13
2022-09-25T10:22:26.659Z,1.15
2022-09-25T10:25:02.574Z,0.90
2022-09-25T10:27:33.343Z,1.48
2022-09-25T10:30:20.872Z,1.30
2022-09-25T10:32:58.564Z,1.25
2022-09-25T10:35:52.478Z,1.40
2022-09-25T10:38:31.004Z,1.10
2022-09-25T10:41:04.742Z,1.17
2022-09-25T10:43:33.233Z,1.40
2022-09-25T10:46:15.522Z,1.20
2022-09-25T10:49:01.776Z,1.10
2022-09-25T10:51:32.664Z,1.10
2022-09-25T10:54:13.496Z,0.80
2022-09-25T10:56:42.410Z,0.68
2022-09-25T10:59:17.780Z,1.00
2022-09-25T11:01:47.574Z,0.80
2022-09-25T11:04:19.126Z,0.70
2022-09-25T11:06:52.750Z,0.90
2022-09-25T11:09:24.505Z,1.10
2022-09-25T11:11:55.996Z,1.25
2022-09-25T11:14:32.328Z,1.20
2022-09-25T11:17:02.505Z,1.00
2022-09-25T11:19:33.222Z,1.40
2022-09-25T11:22:14.536Z,1.30
2022-09-25T11:25:07.835Z,1.02
2022-09-25T11:27:43.195Z,1.00
2022-09-25T11:30:16.550Z,0.88
2022-09-25T11:32:55.970Z,0.65
2022-09-25T11:35:34.677Z,0.57
2022-09-25T11:38:13.962Z,0.65
2022-09-25T11:41:14.869Z,0.70
2022-09-25T11:43:58.510Z,0.70
2022-09-25T11:46:41.906Z,0.80
2022-09-25T11:49:21.186Z,0.60
2022-09-25T11:52:11.872Z,0.85
2022-09-25T11:55:01.982Z,0.70
2022-09-25T11:57:38.101Z,0.60
2022-09-25T12:00:13.239Z,0.60
2022-09-25T12:03:01.165Z,0.63
2022-09-25T12:05:52.998Z,0.65
2022-09-25T12:08:36.838Z,0.80
2022-09-25T12:11:14.989Z,0.60
2022-09-25T12:13:51.380Z,0.75
2022-09-25T12:16:24.446Z,0.65
2022-09-25T12:19:05.339Z,0.52
2022-09-25T12:21:42.169Z,0.47
2022-09-25T12:24:20.457Z,0.40
2022-09-25T12:26:57.301Z,0.80
2022-09-25T12:29:54.877Z,0.50
2022-09-25T12:32:32.533Z,0.60
2022-09-25T12:35:13.172Z,0.70
2022-09-25T12:37:45.596Z,0.70
2022-09-25T12:40:23.091Z,0.90
2022-09-25T12:42:59.287Z,0.65
2022-09-25T12:45:35.947Z,0.60
2022-09-25T12:48:13.636Z,0.70
2022-09-25T12:50:49.421Z,0.70
2022-09-25T12:53:26.711Z,0.50
2022-09-25T12:56:00.039Z,0.60
2022-09-25T13:01:12.720Z,0.70
2022-09-25T13:03:48.718Z,0.90
2022-09-25T13:06:23.123Z,0.90
2022-09-25T13:09:00.674Z,1.00
2022-09-25T13:11:36.822Z,0.77
2022-09-25T13:14:12.566Z,1.40
2022-09-25T13:16:40.756Z,1.00
2022-09-25T13:19:26.500Z,1.20
2022-09-25T13:22:02.818Z,0.90
2022-09-25T13:24:32.538Z,1.10
2022-09-25T13:27:06.919Z,1.10
2022-09-25T13:29:39.220Z,1.00
2022-09-25T13:32:16.126Z,1.00
2022-09-25T13:34:44.920Z,1.10
2022-09-25T13:37:14.824Z,1.15
2022-09-25T13:40:03.607Z,1.38
2022-09-25T13:42:38.342Z,1.55
2022-09-25T13:45:29.932Z,1.40
2022-09-25T13:48:06.897Z,1.27
2022-09-25T13:50:38.089Z,1.15
2022-09-25T13:53:31.183Z,1.20
2022-09-25T13:56:25.320Z,1.40
2022-09-25T13:59:37.080Z,1.33
2022-09-25T14:02:42.226Z,1.00
2022-09-25T14:05:17.657Z,0.82
2022-09-25T14:07:48.824Z,1.02
2022-09-25T14:10:19.057Z,0.90
2022-09-25T14:12:49.034Z,1.05
2022-09-25T14:15:26.933Z,1.50
2022-09-25T14:17:58.974Z,1.02
2022-09-25T14:20:37.144Z,1.20
2022-09-25T14:23:15.042Z,0.75
2022-09-25T14:25:47.159Z,0.63
2022-09-25T14:28:24.399Z,0.68
2022-09-25T14:31:06.424Z,0.65
2022-09-25T14:33:59.235Z,0.70
2022-09-25T14:36:38.206Z,0.43
2022-09-25T14:39:30.241Z,0.40
2022-09-25T14:42:31.369Z,0.95
2022-09-25T14:45:32.132Z,0.93
2022-09-25T14:48:03.114Z,0.80
2022-09-25T14:50:35.837Z,0.80
2022-09-25T14:53:08.503Z,0.70
2022-09-25T14:55:40.168Z,0.83
2022-09-25T14:58:16.168Z,0.85
2022-09-25T15:00:47.862Z,0.70
2022-09-25T15:03:19.695Z,0.70
2022-09-25T15:05:50.837Z,0.70
2022-09-25T15:08:24.675Z,0.70
2022-09-25T15:11:03.910Z,0.75
2022-09-25T15:13:34.725Z,0.70
2022-09-25T15:16:22.387Z,0.70
2022-09-25T15:18:54.355Z,1.10
2022-09-25T15:21:28.298Z,0.82
2022-09-25T15:24:00.131Z,0.73
2022-09-25T15:26:30.233Z,0.70
2022-09-25T15:28:59.282Z,1.00
2022-09-25T15:31:28.404Z,1.25
2022-09-25T15:34:05.242Z,1.02
2022-09-25T15:36:35.089Z,0.80
2022-09-25T15:39:14.713Z,1.00
2022-09-25T15:41:44.747Z,1.00
2022-09-25T15:44:20.098Z,0.90
2022-09-25T15:46:50.459Z,0.90
2022-09-25T15:49:21.956Z,0.90
2022-09-25T15:52:01.290Z,0.95
2022-09-25T15:54:36.282Z,0.90
2022-09-25T15:57:09.766Z,1.30
2022-09-25T16:00:03.299Z,1.45
2022-09-25T16:02:52.694Z,1.63
2022-09-25T16:05:26.689Z,1.65
2022-09-25T16:08:17.212Z,2.00
2022-09-25T16:10:50.130Z,1.85
2022-09-25T16:13:24.044Z,2.08
2022-09-25T16:18:39.680Z,1.33
2022-09-25T16:21:28.835Z,1.25
2022-09-25T16:24:01.236Z,1.50
2022-09-25T16:26:39.533Z,1.10
2022-09-25T16:29:20.484Z,0.90
2022-09-25T16:31:53.628Z,0.82
2022-09-25T16:34:26.702Z,0.70
2022-09-25T16:36:58.340Z,0.77
2022-09-25T16:39:31.931Z,0.88
2022-09-25T16:44:47.316Z,0.73
2022-09-25T16:47:19.659Z,1.10
2022-09-25T16:49:49.169Z,1.00
2022-09-25T16:52:22.392Z,0.93
2022-09-25T16:54:55.078Z,1.20
2022-09-25T16:57:24.622Z,1.10
2022-09-25T16:59:53.881Z,1.15
2022-09-25T17:02:37.377Z,1.20
2022-09-25T17:05:09.313Z,1.40
2022-09-25T17:07:37.523Z,1.40
2022-09-25T17:10:10.274Z,1.60
2022-09-25T17:12:38.561Z,1.60
2022-09-25T17:15:15.315Z,1.70
2022-09-25T17:17:43.572Z,2.28
2022-09-25T17:20:12.493Z,1.83
2022-09-25T17:22:41.284Z,1.60
2022-09-25T17:25:38.289Z,1.85
2022-09-25T17:28:08.544Z,1.90
2022-09-25T17:30:37.276Z,1.60
2022-09-25T17:33:06.397Z,2.10
2022-09-25T17:35:42.825Z,1.80
2022-09-25T17:38:12.406Z,2.00
2022-09-25T17:40:44.717Z,1.80
2022-09-25T17:43:14.328Z,2.25
2022-09-25T17:45:49.197Z,2.65
2022-09-25T17:48:24.266Z,2.03
2022-09-25T17:50:54.455Z,2.00
2022-09-25T17:53:24.053Z,2.42
2022-09-25T17:55:54.198Z,1.85
2022-09-25T17:58:23.791Z,2.70
2022-09-25T18:00:52.895Z,2.85
2022-09-25T18:03:22.124Z,3.20
2022-09-25T18:05:50.670Z,3.30
2022-09-25T18:08:19.481Z,2.90
2022-09-25T18:10:48.865Z,3.30
2022-09-25T18:13:20.378Z,3.30
2022-09-25T18:15:51.561Z,3.60
2022-09-25T18:18:19.940Z,3.95
2022-09-25T18:21:09.158Z,4.35
2022-09-25T18:23:39.141Z,4.13
2022-09-25T18:26:09.727Z,4.32
2022-09-25T18:28:39.702Z,5.35
2022-09-25T18:31:08.446Z,4.63
2022-09-25T18:33:37.545Z,5.38
2022-09-25T18:36:05.937Z,4.50
2022-09-25T18:38:34.241Z,3.60
2022-09-25T18:41:03.431Z,2.90
2022-09-25T18:43:32.238Z,2.80
2022-09-25T18:46:02.788Z,2.63
2022-09-25T18:48:31.315Z,2.30
2022-09-25T18:51:00.020Z,2.35
2022-09-25T18:53:28.807Z,2.30
2022-09-25T18:55:58.549Z,2.40
2022-09-25T18:58:29.537Z,3.05
2022-09-25T19:00:57.739Z,2.53
2022-09-25T19:03:28.059Z,2.50
2022-09-25T19:06:01.455Z,2.40
2022-09-25T19:08:32.541Z,2.58
2022-09-25T19:11:00.916Z,2.85
2022-09-25T19:13:30.414Z,2.63
2022-09-25T19:15:59.236Z,2.83
2022-09-25T19:18:28.879Z,2.70
2022-09-25T19:20:57.224Z,3.50
2022-09-25T19:23:27.290Z,2.40
2022-09-25T19:25:59.145Z,2.50
2022-09-25T19:28:28.670Z,3.05
2022-09-25T19:30:58.847Z,3.05
2022-09-25T19:33:29.818Z,2.72
2022-09-25T19:35:59.217Z,2.97
2022-09-25T19:38:27.613Z,2.83
2022-09-25T19:40:56.020Z,2.60
2022-09-25T19:43:24.531Z,2.40
2022-09-25T19:45:53.634Z,3.13
2022-09-25T19:48:22.493Z,2.30
2022-09-25T19:50:52.367Z,2.70
2022-09-25T19:53:20.604Z,2.55
2022-09-25T19:55:53.209Z,2.42
2022-09-25T19:58:23.672Z,2.10
2022-09-25T20:00:53.630Z,1.80
2022-09-25T20:03:23.594Z,2.60
2022-09-25T20:05:53.167Z,2.08
2022-09-25T20:08:22.364Z,2.22
2022-09-25T20:10:50.656Z,2.30
2022-09-25T20:13:19.813Z,2.33
2022-09-25T20:15:48.679Z,2.35
2022-09-25T20:18:17.447Z,2.20
2022-09-25T20:20:45.901Z,2.40
2022-09-25T20:23:15.602Z,2.28
2022-09-25T20:25:43.801Z,2.40
2022-09-25T20:28:14.837Z,2.60
2022-09-25T20:30:43.156Z,2.67
2022-09-25T20:33:11.458Z,2.40
2022-09-25T20:35:39.690Z,2.60
2022-09-25T20:38:11.073Z,2.60
2022-09-25T20:40:41.626Z,2.50
2022-09-25T20:43:09.810Z,2.58
2022-09-25T20:45:38.010Z,2.55
2022-09-25T20:48:06.408Z,2.25
2022-09-25T20:50:35.357Z,2.28
2022-09-25T20:53:03.625Z,2.47
2022-09-25T20:55:31.818Z,2.45
2022-09-25T20:58:01.376Z,2.67
2022-09-25T21:00:29.972Z,2.55
2022-09-25T21:03:00.103Z,3.17
2022-09-25T21:05:28.384Z,2.55
2022-09-25T21:07:56.712Z,2.83
2022-09-25T21:10:25.154Z,2.35
2022-09-25T21:12:53.303Z,2.55
2022-09-25T21:15:23.013Z,2.70
2022-09-25T21:17:54.426Z,2.55
2022-09-25T21:20:22.716Z,2.78
2022-09-25T21:22:52.598Z,2.90
2022-09-25T21:25:21.146Z,2.40
2022-09-25T21:27:49.347Z,2.90
2022-09-25T21:30:17.705Z,2.60
2022-09-25T21:32:47.520Z,3.20
2022-09-25T21:35:15.777Z,2.92
2022-09-25T21:37:44.203Z,3.65
2022-09-25T21:40:12.512Z,2.90
2022-09-25T21:42:40.917Z,2.88
2022-09-25T21:45:11.371Z,2.90
2022-09-25T21:47:39.812Z,3.30
2022-09-25T21:50:10.503Z,3.13
2022-09-25T21:52:41.307Z,2.88
2022-09-25T21:55:11.064Z,2.97
2022-09-25T21:57:39.462Z,3.75
2022-09-25T22:00:08.756Z,3.03
2022-09-25T22:02:38.134Z,3.47
2022-09-25T22:05:06.733Z,3.53
2022-09-25T22:07:36.733Z,4.35
2022-09-25T22:10:05.805Z,3.90
2022-09-25T22:12:34.014Z,4.00
2022-09-25T22:15:02.432Z,4.00
2022-09-25T22:17:30.623Z,4.20
2022-09-25T22:20:05.077Z,3.85
2022-09-25T22:22:34.141Z,4.32
2022-09-25T22:25:03.726Z,4.22
2022-09-25T22:27:31.974Z,4.13
2022-09-25T22:30:00.746Z,4.15
2022-09-25T22:32:28.926Z,4.05
2022-09-25T22:34:57.130Z,4.10
2022-09-25T22:37:26.764Z,4.18
2022-09-25T22:39:54.854Z,4.65
2022-09-25T22:42:26.575Z,4.25
2022-09-25T22:44:56.290Z,4.90
2022-09-25T22:47:24.536Z,4.07
2022-09-25T22:49:52.911Z,4.40
2022-09-25T22:52:21.644Z,4.38
2022-09-25T22:54:49.773Z,4.40
2022-09-25T22:57:18.150Z,4.50
2022-09-25T22:59:47.812Z,4.70
2022-09-25T23:02:16.061Z,4.82
2022-09-25T23:04:46.220Z,4.90
2022-09-25T23:07:14.507Z,4.47
2022-09-25T23:09:43.258Z,5.13
2022-09-25T23:12:11.925Z,4.53
2022-09-25T23:14:40.249Z,4.38
2022-09-25T23:17:10.037Z,4.13
2022-09-25T23:19:39.305Z,4.43
2022-09-25T23:22:07.488Z,3.90
2022-09-25T23:24:35.595Z,4.07
2022-09-25T23:27:03.922Z,4.30
2022-09-25T23:29:32.172Z,3.70
2022-09-25T23:32:00.338Z,3.75
2022-09-25T23:34:29.935Z,3.80
2022-09-25T23:36:58.243Z,4.28
2022-09-25T23:39:26.363Z,3.83
2022-09-25T23:41:54.760Z,3.60
2022-09-25T23:44:23.239Z,3.40
2022-09-25T23:46:51.431Z,3.42
2022-09-25T23:49:19.901Z,3.60
2022-09-25T23:51:49.947Z,3.28
2022-09-25T23:54:19.255Z,3.28
2022-09-25T23:56:47.647Z,3.28
2022-09-25T23:59:16.491Z,3.15
